createdAt,value
2018-05-14T00:02:11.245Z,14.90
2018-05-14T00:04:39.681Z,14.90
2018-05-14T00:07:08.428Z,14.80
2018-05-14T00:09:37.202Z,14.70
2018-05-14T00:12:05.566Z,14.70
2018-05-14T00:14:34.175Z,14.50
2018-05-14T00:17:02.552Z,14.50
2018-05-14T00:19:31.310Z,14.30
2018-05-14T00:22:03.592Z,14.10
2018-05-14T00:24:31.958Z,14.10
2018-05-14T00:27:00.356Z,14.10
2018-05-14T00:29:28.875Z,13.90
2018-05-14T00:31:57.282Z,13.90
2018-05-14T00:34:26.139Z,13.90
2018-05-14T00:36:54.543Z,13.90
2018-05-14T00:39:22.922Z,13.80
2018-05-14T00:41:51.298Z,13.80
2018-05-14T00:44:20.048Z,13.90
2018-05-14T00:46:48.524Z,13.60
2018-05-14T00:49:17.008Z,13.40
2018-05-14T00:51:45.677Z,13.30
2018-05-14T00:54:15.667Z,13.70
2018-05-14T00:56:44.097Z,13.70
2018-05-14T00:59:12.476Z,13.80
2018-05-14T01:01:42.667Z,14.00
2018-05-14T01:04:11.063Z,14.00
2018-05-14T01:06:40.572Z,13.90
2018-05-14T01:09:08.819Z,13.80
2018-05-14T01:11:37.178Z,13.70
2018-05-14T01:14:05.588Z,13.50
2018-05-14T01:16:34.401Z,13.50
2018-05-14T01:19:02.791Z,13.40
2018-05-14T01:21:32.692Z,13.40
2018-05-14T01:24:01.182Z,13.40
2018-05-14T01:26:29.534Z,13.50
2018-05-14T01:28:58.027Z,13.40
2018-05-14T01:31:26.787Z,13.30
2018-05-14T01:33:55.162Z,13.40
2018-05-14T01:36:23.556Z,13.20
2018-05-14T01:38:51.943Z,13.30
2018-05-14T01:41:20.694Z,13.20
2018-05-14T01:43:49.943Z,13.10
2018-05-14T01:46:18.410Z,13.10
2018-05-14T01:48:46.910Z,12.80
2018-05-14T01:51:15.618Z,12.70
2018-05-14T01:53:44.015Z,12.50
2018-05-14T01:56:12.404Z,12.60
2018-05-14T01:58:41.578Z,12.50
2018-05-14T02:01:10.529Z,12.50
2018-05-14T02:03:39.022Z,12.60
2018-05-14T02:06:07.391Z,12.70
2018-05-14T02:08:35.816Z,12.70
2018-05-14T02:11:05.290Z,13.00
2018-05-14T02:13:33.679Z,13.00
2018-05-14T02:18:43.070Z,13.00
2018-05-14T02:21:12.523Z,12.80
2018-05-14T02:23:41.030Z,12.80
2018-05-14T02:26:09.574Z,12.80
2018-05-14T02:28:37.993Z,12.70
2018-05-14T02:31:06.687Z,12.70
2018-05-14T02:33:35.050Z,12.70
2018-05-14T02:36:03.420Z,12.70
2018-05-14T02:38:32.223Z,12.70
2018-05-14T02:41:01.332Z,12.70
2018-05-14T02:43:29.679Z,12.60
2018-05-14T02:45:58.039Z,12.60
2018-05-14T02:48:26.427Z,12.50
2018-05-14T02:50:55.323Z,12.20
2018-05-14T02:53:23.793Z,12.10
2018-05-14T02:55:52.290Z,12.00
2018-05-14T02:58:20.791Z,12.10
2018-05-14T03:00:49.489Z,12.00
2018-05-14T03:03:17.874Z,12.00
2018-05-14T03:05:46.259Z,12.10
2018-05-14T03:08:15.774Z,12.20
2018-05-14T03:10:45.060Z,12.20
2018-05-14T03:13:14.601Z,12.20
2018-05-14T03:15:43.031Z,12.10
2018-05-14T03:18:11.764Z,11.90
2018-05-14T03:20:40.815Z,12.00
2018-05-14T03:23:09.229Z,12.00
2018-05-14T03:25:37.882Z,12.10
2018-05-14T03:28:06.699Z,12.20
2018-05-14T03:30:35.192Z,12.30
2018-05-14T03:33:03.644Z,12.20
2018-05-14T03:35:32.068Z,12.20
2018-05-14T03:38:01.409Z,12.10
2018-05-14T03:40:31.020Z,11.60
2018-05-14T03:43:00.416Z,11.60
2018-05-14T03:45:29.022Z,11.40
2018-05-14T03:47:58.818Z,11.50
2018-05-14T03:50:27.279Z,11.60
2018-05-14T03:52:55.770Z,11.70
2018-05-14T03:55:24.209Z,11.80
2018-05-14T03:57:52.928Z,11.80
2018-05-14T04:01:34.132Z,11.80
2018-05-14T04:04:08.442Z,11.70
2018-05-14T04:06:36.903Z,11.70
2018-05-14T04:09:05.399Z,11.80
2018-05-14T04:11:34.171Z,11.80
2018-05-14T04:14:02.602Z,11.60
2018-05-14T04:16:32.021Z,11.70
2018-05-14T04:19:00.863Z,11.70
2018-05-14T04:21:29.253Z,11.80
2018-05-14T04:23:57.647Z,11.80
2018-05-14T04:26:43.015Z,12.00
2018-05-14T04:29:15.371Z,11.90
2018-05-14T04:31:44.138Z,11.90
2018-05-14T04:34:12.871Z,11.90
2018-05-14T04:36:41.242Z,12.10
2018-05-14T04:39:10.033Z,12.00
2018-05-14T04:41:39.231Z,12.10
2018-05-14T04:44:07.862Z,12.20
2018-05-14T04:46:37.710Z,12.30
2018-05-14T04:49:07.019Z,12.40
2018-05-14T04:51:37.943Z,12.50
2018-05-14T04:54:07.141Z,12.50
2018-05-14T04:56:36.717Z,12.60
2018-05-14T04:59:09.510Z,12.70
2018-05-14T05:01:42.413Z,13.10
2018-05-14T05:04:11.635Z,13.70
2018-05-14T05:06:40.059Z,13.90
2018-05-14T05:09:08.882Z,13.80
2018-05-14T05:11:37.663Z,13.60
2018-05-14T05:14:06.854Z,13.50
2018-05-14T05:16:37.783Z,13.40
2018-05-14T05:19:06.242Z,13.20
2018-05-14T05:21:35.838Z,13.80
2018-05-14T05:24:36.248Z,13.80
2018-05-14T05:27:07.149Z,13.60
2018-05-14T05:32:51.489Z,13.70
2018-05-14T05:35:20.408Z,13.80
2018-05-14T05:37:50.639Z,14.10
2018-05-14T05:40:19.947Z,14.10
2018-05-14T05:42:49.105Z,14.10
2018-05-14T05:45:19.120Z,14.00
2018-05-14T05:47:48.668Z,14.00
2018-05-14T05:50:18.206Z,14.20
2018-05-14T05:52:49.626Z,14.10
2018-05-14T05:55:18.008Z,14.10
2018-05-14T05:57:46.755Z,14.10
2018-05-14T06:00:15.109Z,13.90
2018-05-14T06:02:43.520Z,14.00
2018-05-14T06:05:13.020Z,14.20
2018-05-14T06:07:42.192Z,14.20
2018-05-14T06:10:10.610Z,14.20
2018-05-14T06:12:39.491Z,14.30
2018-05-14T06:15:07.892Z,14.50
2018-05-14T06:17:36.390Z,14.70
2018-05-14T06:20:08.191Z,15.00
2018-05-14T06:22:42.752Z,15.40
2018-05-14T06:25:15.530Z,16.10
2018-05-14T06:27:46.879Z,17.80
2018-05-14T06:30:16.776Z,20.00
2018-05-14T06:32:45.947Z,22.80
2018-05-14T06:35:18.434Z,22.80
2018-05-14T06:37:50.341Z,24.10
2018-05-14T06:40:18.982Z,24.30
2018-05-14T06:42:49.105Z,25.10
2018-05-14T06:45:32.044Z,25.30
2018-05-14T06:48:02.260Z,27.10
2018-05-14T06:50:30.679Z,27.10
2018-05-14T06:53:00.109Z,28.00
2018-05-14T06:55:33.036Z,28.70
2018-05-14T06:58:01.716Z,26.90
2018-05-14T07:00:31.854Z,26.90
2018-05-14T07:03:04.327Z,26.80
2018-05-14T07:05:34.318Z,27.20
2018-05-14T07:08:02.813Z,28.40
2018-05-14T07:10:31.701Z,25.90
2018-05-14T07:13:00.132Z,26.80
2018-05-14T07:15:28.560Z,29.90
2018-05-14T07:17:59.166Z,25.40
2018-05-14T07:20:27.646Z,25.30
2018-05-14T07:22:56.566Z,27.00
2018-05-14T07:25:29.954Z,24.30
2018-05-14T07:28:01.567Z,24.30
2018-05-14T07:30:33.289Z,28.50
2018-05-14T07:33:21.840Z,26.00
2018-05-14T07:36:11.198Z,26.00
2018-05-14T07:38:40.840Z,27.00
2018-05-14T07:41:10.148Z,22.90
2018-05-14T07:43:42.945Z,22.80
2018-05-14T07:46:14.966Z,22.20
2018-05-14T07:48:47.015Z,22.40
2018-05-14T07:51:17.246Z,22.40
2018-05-14T07:53:55.503Z,22.40
2018-05-14T07:56:24.643Z,22.40
2018-05-14T07:58:53.504Z,23.10
2018-05-14T08:04:15.486Z,23.50
2018-05-14T08:06:45.943Z,23.50
2018-05-14T08:09:30.150Z,24.90
2018-05-14T08:12:08.993Z,24.90
2018-05-14T08:14:42.233Z,25.00
2018-05-14T08:17:16.002Z,26.50
2018-05-14T08:19:44.585Z,25.50
2018-05-14T08:22:14.601Z,24.60
2018-05-14T08:25:16.800Z,26.10
2018-05-14T08:27:51.324Z,26.90
2018-05-14T08:30:23.682Z,25.30
2018-05-14T08:32:52.898Z,25.30
2018-05-14T08:35:22.476Z,24.40
2018-05-14T08:38:06.570Z,24.40
2018-05-14T08:40:45.997Z,27.90
2018-05-14T08:43:21.114Z,27.80
2018-05-14T08:48:50.058Z,26.50
2018-05-14T08:51:19.044Z,26.50
2018-05-14T08:53:47.546Z,26.80
2018-05-14T08:56:16.014Z,27.30
2018-05-14T08:58:45.510Z,28.50
2018-05-14T09:01:16.002Z,27.70
2018-05-14T09:03:47.209Z,27.70
2018-05-14T09:06:16.075Z,28.00
2018-05-14T09:08:45.632Z,28.40
2018-05-14T09:11:43.504Z,28.40
2018-05-14T09:14:13.051Z,28.40
2018-05-14T09:19:38.104Z,27.70
2018-05-14T09:22:07.255Z,27.10
2018-05-14T09:24:35.766Z,26.70
2018-05-14T09:27:06.319Z,27.70
2018-05-14T09:29:41.828Z,26.60
2018-05-14T09:32:13.159Z,25.20
2018-05-14T09:34:44.185Z,24.50
2018-05-14T09:37:15.912Z,24.20
2018-05-14T09:40:00.232Z,23.00
2018-05-14T09:42:30.285Z,26.10
2018-05-14T09:44:59.121Z,26.10
2018-05-14T09:47:27.906Z,23.40
2018-05-14T09:50:01.449Z,23.20
2018-05-14T09:52:30.647Z,23.80
2018-05-14T09:54:59.123Z,24.60
2018-05-14T09:57:28.971Z,23.50
2018-05-14T09:59:57.381Z,23.50
2018-05-14T10:02:26.340Z,22.50
2018-05-14T10:04:55.660Z,23.30
2018-05-14T10:07:25.900Z,23.80
2018-05-14T10:09:58.118Z,24.00
2018-05-14T10:12:27.304Z,24.40
2018-05-14T10:14:55.728Z,24.40
2018-05-14T10:17:25.171Z,24.90
2018-05-14T10:19:56.879Z,24.30
2018-05-14T10:22:29.453Z,24.30
2018-05-14T10:24:59.512Z,25.10
2018-05-14T10:27:27.947Z,24.90
2018-05-14T10:30:00.805Z,23.00
2018-05-14T10:32:32.222Z,22.50
2018-05-14T10:38:35.330Z,22.70
2018-05-14T10:41:04.273Z,23.10
2018-05-14T10:43:33.030Z,22.90
2018-05-14T10:46:02.903Z,21.90
2018-05-14T10:48:31.721Z,21.80
2018-05-14T10:51:28.371Z,22.60
2018-05-14T10:53:59.339Z,24.30
2018-05-14T10:56:27.901Z,24.40
2018-05-14T10:59:25.482Z,23.40
2018-05-14T11:01:54.036Z,23.40
2018-05-14T11:04:23.542Z,22.80
2018-05-14T11:06:51.938Z,22.20
2018-05-14T11:09:20.647Z,22.90
2018-05-14T11:12:15.024Z,22.90
2018-05-14T11:14:43.395Z,22.70
2018-05-14T11:17:15.011Z,22.70
2018-05-14T11:20:05.737Z,22.60
2018-05-14T11:22:34.538Z,22.20
2018-05-14T11:25:18.434Z,22.00
2018-05-14T11:27:49.724Z,23.20
2018-05-14T11:33:43.446Z,24.50
2018-05-14T11:36:19.440Z,23.90
2018-05-14T11:38:50.387Z,24.60
2018-05-14T11:41:26.313Z,23.50
2018-05-14T11:43:56.180Z,22.90
2018-05-14T11:46:25.898Z,22.60
2018-05-14T11:48:58.735Z,22.60
2018-05-14T11:51:41.946Z,23.30
2018-05-14T11:54:45.526Z,24.10
2018-05-14T12:00:37.571Z,23.50
2018-05-14T12:03:07.312Z,22.70
2018-05-14T12:05:37.566Z,22.00
2018-05-14T12:08:06.198Z,22.00
2018-05-14T12:10:51.060Z,21.00
2018-05-14T12:13:21.474Z,20.30
2018-05-14T12:15:49.977Z,20.60
2018-05-14T12:18:18.762Z,20.40
2018-05-14T12:20:49.803Z,20.40
2018-05-14T12:23:19.431Z,19.90
2018-05-14T12:25:53.887Z,19.90
2018-05-14T12:28:26.704Z,20.10
2018-05-14T12:30:59.198Z,19.80
2018-05-14T12:33:29.222Z,19.50
2018-05-14T12:35:59.346Z,19.60
2018-05-14T12:38:27.838Z,19.70
2018-05-14T12:40:59.016Z,18.90
2018-05-14T12:43:32.187Z,18.90
2018-05-14T12:46:16.994Z,18.80
2018-05-14T12:48:46.515Z,18.80
2018-05-14T12:51:18.667Z,18.90
2018-05-14T12:53:59.150Z,18.70
2018-05-14T12:56:27.935Z,19.20
2018-05-14T12:58:58.056Z,19.30
2018-05-14T13:01:26.921Z,19.40
2018-05-14T13:03:56.529Z,19.80
2018-05-14T13:06:24.940Z,19.90
2018-05-14T13:15:36.258Z,20.00
2018-05-14T13:18:14.523Z,20.60
2018-05-14T13:21:03.889Z,20.70
2018-05-14T13:23:34.360Z,20.90
2018-05-14T13:26:07.317Z,21.00
2018-05-14T13:28:43.749Z,20.40
2018-05-14T13:31:35.257Z,20.50
2018-05-14T13:34:04.838Z,21.10
2018-05-14T13:36:33.354Z,20.80
2018-05-14T13:39:17.033Z,20.00
2018-05-14T13:41:48.659Z,19.60
2018-05-14T13:44:17.057Z,19.20
2018-05-14T13:46:45.455Z,19.30
2018-05-14T13:49:14.386Z,19.00
2018-05-14T13:51:42.874Z,18.80
2018-05-14T13:54:11.330Z,18.30
2018-05-14T13:57:12.711Z,18.20
2018-05-14T14:00:02.477Z,17.80
2018-05-14T14:02:34.959Z,17.80
2018-05-14T14:05:04.472Z,17.40
2018-05-14T14:07:32.873Z,17.60
2018-05-14T14:10:01.609Z,17.70
2018-05-14T14:12:31.612Z,17.60
2018-05-14T14:14:59.994Z,17.70
2018-05-14T14:17:28.748Z,17.30
2018-05-14T14:19:59.224Z,17.30
2018-05-14T14:22:54.771Z,17.30
2018-05-14T14:28:49.185Z,17.40
2018-05-14T14:31:18.872Z,17.20
2018-05-14T14:33:47.899Z,17.20
2018-05-14T14:36:16.435Z,17.30
2018-05-14T14:38:47.765Z,17.30
2018-05-14T14:41:20.787Z,17.30
2018-05-14T14:43:49.404Z,17.20
2018-05-14T14:46:19.046Z,17.00
2018-05-14T14:48:47.800Z,17.00
2018-05-14T14:51:17.735Z,17.00
2018-05-14T14:54:01.672Z,17.00
2018-05-14T14:56:32.690Z,16.80
2018-05-14T14:59:02.968Z,16.80
2018-05-14T15:01:33.893Z,16.80
2018-05-14T15:04:28.470Z,16.90
2018-05-14T15:06:58.478Z,17.20
2018-05-14T15:09:41.330Z,17.20
2018-05-14T15:12:18.039Z,17.00
2018-05-14T15:14:56.514Z,16.90
2018-05-14T15:17:27.043Z,16.90
2018-05-14T15:19:58.388Z,16.70
2018-05-14T15:22:28.040Z,16.90
2018-05-14T15:25:00.699Z,17.20
2018-05-14T15:27:33.646Z,17.50
2018-05-14T15:30:20.581Z,17.50
2018-05-14T15:32:50.240Z,17.40
2018-05-14T15:35:19.300Z,17.70
2018-05-14T15:37:48.301Z,17.70
2018-05-14T15:40:29.485Z,18.00
2018-05-14T15:43:04.961Z,18.60
2018-05-14T15:45:34.867Z,18.80
2018-05-14T15:48:03.975Z,18.70
2018-05-14T15:50:42.459Z,18.30
2018-05-14T15:53:11.503Z,18.30
2018-05-14T15:55:41.287Z,18.50
2018-05-14T15:58:16.258Z,18.40
2018-05-14T16:00:45.406Z,18.50
2018-05-14T16:03:17.367Z,18.80
2018-05-14T16:05:45.723Z,19.20
2018-05-14T16:08:28.355Z,19.50
2018-05-14T16:11:10.974Z,19.60
2018-05-14T16:13:39.952Z,19.60
2018-05-14T16:16:08.347Z,19.60
2018-05-14T16:18:37.779Z,19.70
2018-05-14T16:21:07.005Z,19.60
2018-05-14T16:23:40.420Z,19.60
2018-05-14T16:26:19.751Z,19.60
2018-05-14T16:28:48.958Z,19.70
2018-05-14T16:31:17.966Z,19.40
2018-05-14T16:33:48.559Z,18.80
2018-05-14T16:36:16.978Z,18.80
2018-05-14T16:38:45.790Z,19.10
2018-05-14T16:41:27.495Z,18.70
2018-05-14T16:43:57.750Z,17.80
2018-05-14T16:49:06.534Z,17.70
2018-05-14T16:51:34.936Z,17.30
2018-05-14T16:54:04.833Z,17.80
2018-05-14T16:56:35.936Z,17.80
2018-05-14T16:59:06.010Z,18.30
2018-05-14T17:01:35.306Z,18.30
2018-05-14T17:04:05.592Z,18.50
2018-05-14T17:06:34.523Z,18.50
2018-05-14T17:09:02.984Z,18.40
2018-05-14T17:11:31.814Z,18.40
2018-05-14T17:14:02.330Z,18.30
2018-05-14T17:17:07.791Z,18.30
2018-05-14T17:19:40.761Z,18.40
2018-05-14T17:22:10.924Z,18.40
2018-05-14T17:24:40.079Z,18.30
2018-05-14T17:27:36.802Z,18.30
2018-05-14T17:30:05.887Z,18.10
2018-05-14T17:32:34.268Z,17.70
2018-05-14T17:35:03.379Z,17.30
2018-05-14T17:37:35.274Z,17.20
2018-05-14T17:40:03.821Z,17.10
2018-05-14T17:42:32.250Z,17.10
2018-05-14T17:45:01.741Z,17.20
2018-05-14T17:47:30.899Z,17.10
2018-05-14T17:50:00.332Z,17.10
2018-05-14T17:52:29.410Z,16.90
2018-05-14T17:54:57.911Z,17.00
2018-05-14T17:57:26.682Z,16.90
2018-05-14T17:59:55.533Z,17.00
2018-05-14T18:02:24.195Z,16.80
2018-05-14T18:04:52.636Z,16.40
2018-05-14T18:07:21.354Z,16.30
2018-05-14T18:09:49.783Z,16.00
2018-05-14T18:12:18.478Z,15.80
2018-05-14T18:14:47.351Z,15.80
2018-05-14T18:17:15.826Z,15.80
2018-05-14T18:19:50.163Z,15.80
2018-05-14T18:22:25.712Z,15.80
2018-05-14T18:25:04.918Z,16.00
2018-05-14T18:27:34.482Z,15.70
2018-05-14T18:30:07.172Z,15.70
2018-05-14T18:32:39.476Z,15.80
2018-05-14T18:35:12.454Z,15.90
2018-05-14T18:37:41.259Z,15.50
2018-05-14T18:40:09.973Z,15.50
2018-05-14T18:42:38.399Z,15.70
2018-05-14T18:45:07.584Z,15.80
2018-05-14T18:47:37.462Z,15.80
2018-05-14T18:50:05.880Z,15.50
2018-05-14T18:52:35.021Z,15.30
2018-05-14T18:55:05.921Z,15.40
2018-05-14T18:57:35.948Z,15.30
2018-05-14T19:00:04.502Z,15.50
2018-05-14T19:02:32.942Z,15.60
2018-05-14T19:05:01.535Z,15.80
2018-05-14T19:07:30.369Z,15.70
2018-05-14T19:09:58.937Z,15.50
2018-05-14T19:12:27.386Z,15.10
2018-05-14T19:15:00.488Z,14.90
2018-05-14T19:18:04.875Z,15.30
2018-05-14T19:20:34.558Z,15.40
2018-05-14T19:23:07.239Z,15.40
2018-05-14T19:25:36.542Z,15.50
2018-05-14T19:28:12.862Z,15.30
2018-05-14T19:30:41.209Z,15.30
2018-05-14T19:33:09.707Z,15.30
2018-05-14T19:35:59.304Z,15.40
2018-05-14T19:38:41.559Z,15.40
2018-05-14T19:41:12.201Z,15.30
2018-05-14T19:43:41.144Z,15.30
2018-05-14T20:02:36.984Z,15.40
2018-05-14T20:05:05.345Z,15.50
2018-05-14T20:07:33.961Z,15.40
2018-05-14T20:10:02.542Z,15.50
2018-05-14T20:12:30.811Z,15.40
2018-05-14T20:14:59.368Z,15.50
2018-05-14T20:17:28.090Z,15.50
2018-05-14T20:19:56.496Z,15.10
2018-05-14T20:22:24.975Z,14.80
2018-05-14T20:24:54.126Z,14.60
2018-05-14T20:27:22.557Z,14.70
2018-05-14T20:29:51.983Z,14.60
2018-05-14T20:32:20.712Z,14.60
2018-05-14T20:34:49.110Z,14.80
2018-05-14T20:37:17.600Z,14.90
2018-05-14T20:39:48.995Z,15.10
2018-05-14T20:42:17.769Z,15.10
2018-05-14T20:44:46.301Z,15.10
2018-05-14T20:47:15.072Z,14.90
2018-05-14T20:49:43.440Z,14.60
2018-05-14T20:52:11.991Z,14.60
2018-05-14T20:54:49.834Z,14.80
2018-05-14T20:57:19.256Z,15.00
2018-05-14T20:59:47.910Z,15.10
2018-05-14T21:02:19.519Z,15.20
2018-05-14T21:04:47.885Z,15.10
2018-05-14T21:07:16.649Z,14.90
2018-05-14T21:09:47.481Z,14.90
2018-05-14T21:12:20.331Z,15.00
2018-05-14T21:14:52.388Z,14.90
2018-05-14T21:17:20.742Z,14.90
2018-05-14T21:19:49.332Z,14.90
2018-05-14T21:22:18.221Z,14.90
2018-05-14T21:24:46.657Z,14.80
2018-05-14T21:27:17.376Z,14.70
2018-05-14T21:29:48.723Z,14.80
2018-05-14T21:32:20.626Z,14.80
2018-05-14T21:34:49.907Z,14.90
2018-05-14T21:37:18.780Z,14.90
2018-05-14T21:39:47.200Z,14.90
2018-05-14T21:42:15.637Z,14.80
2018-05-14T21:44:47.027Z,14.90
2018-05-14T21:47:15.812Z,14.70
2018-05-14T21:49:44.162Z,14.90
2018-05-14T21:52:13.438Z,14.60
2018-05-14T21:54:44.072Z,14.90
2018-05-14T21:57:16.258Z,14.90
2018-05-14T21:59:44.978Z,14.70
2018-05-14T22:02:13.777Z,14.70
2018-05-14T22:04:42.253Z,14.80
2018-05-14T22:07:10.892Z,14.90
2018-05-14T22:09:39.216Z,15.10
2018-05-14T22:12:07.857Z,15.00
2018-05-14T22:14:36.614Z,15.00
2018-05-14T22:17:05.053Z,15.00
2018-05-14T22:19:34.634Z,14.90
2018-05-14T22:22:03.736Z,14.70
2018-05-14T22:24:33.420Z,14.60
2018-05-14T22:27:02.675Z,14.10
2018-05-14T22:29:31.160Z,14.10
2018-05-14T22:32:01.725Z,14.30
2018-05-14T22:34:30.408Z,14.30
2018-05-14T22:36:58.945Z,14.50
2018-05-14T22:39:27.376Z,14.30
2018-05-14T22:41:56.649Z,14.10
2018-05-14T22:44:25.026Z,14.00
2018-05-14T22:46:53.581Z,14.00
2018-05-14T22:49:22.213Z,14.10
2018-05-14T22:51:51.193Z,14.30
2018-05-14T22:54:24.208Z,14.40
2018-05-14T22:56:52.632Z,14.40
2018-05-14T22:59:21.136Z,14.40
2018-05-14T23:01:51.044Z,14.00
2018-05-14T23:04:19.422Z,13.80
2018-05-14T23:06:47.760Z,13.70
2018-05-14T23:09:16.985Z,14.00
2018-05-14T23:11:45.328Z,14.00
2018-05-14T23:14:13.681Z,14.00
2018-05-14T23:16:42.340Z,13.90
2018-05-14T23:19:10.705Z,14.00
2018-05-14T23:21:39.040Z,14.00
2018-05-14T23:24:08.609Z,14.20
2018-05-14T23:26:37.228Z,14.20
2018-05-14T23:29:05.655Z,14.10
2018-05-14T23:31:34.008Z,13.90
2018-05-14T23:34:03.152Z,14.10
2018-05-14T23:36:31.786Z,14.10
2018-05-14T23:39:00.924Z,14.40
2018-05-14T23:41:29.336Z,14.30
2018-05-14T23:43:57.977Z,14.10
2018-05-14T23:46:26.357Z,14.30
2018-05-14T23:48:54.732Z,14.40
2018-05-14T23:51:23.117Z,14.50
2018-05-14T23:53:51.784Z,14.50
2018-05-14T23:56:20.877Z,14.60
2018-05-14T23:58:50.036Z,14.60
